createdAt,value
2018-12-31T10:14:04.225Z,100
2018-12-31T10:15:14.154Z,105
2018-12-31T10:16:24.081Z,115
2018-12-31T10:17:33.512Z,140
2018-12-31T10:18:43.454Z,120
2018-12-31T10:19:52.634Z,110
2018-12-31T10:21:02.067Z,105
2018-12-31T10:22:11.756Z,110
2018-12-31T10:23:21.512Z,115
2018-12-31T10:24:30.690Z,110
2018-12-31T10:25:40.458Z,110
2018-12-31T10:26:50.143Z,120
2018-12-31T10:27:59.821Z,105
2018-12-31T10:29:09.003Z,110
2018-12-31T10:30:18.692Z,110
2018-12-31T10:31:28.710Z,120
2018-12-31T10:32:38.136Z,110
2018-12-31T10:33:47.822Z,120
2018-12-31T10:34:57.748Z,125
2018-12-31T10:36:07.679Z,145
2018-12-31T10:37:17.357Z,175
2018-12-31T10:38:27.414Z,165
2018-12-31T10:39:36.855Z,160
2018-12-31T10:40:46.807Z,160
2018-12-31T10:41:56.275Z,165
2018-12-31T10:43:06.463Z,165
2018-12-31T10:44:15.999Z,140
2018-12-31T10:45:25.930Z,115
2018-12-31T10:46:35.410Z,110
2018-12-31T10:47:45.086Z,110
2018-12-31T10:48:55.582Z,110
2018-12-31T10:50:05.015Z,110
2018-12-31T10:51:14.198Z,115
2018-12-31T10:52:23.911Z,115
2018-12-31T10:53:33.599Z,130
2018-12-31T10:54:43.536Z,125
2018-12-31T10:55:53.217Z,130
2018-12-31T10:57:03.151Z,135
2018-12-31T10:58:12.824Z,130
2018-12-31T10:59:22.784Z,135
2018-12-31T11:00:33.121Z,130
2018-12-31T11:01:43.012Z,125
2018-12-31T11:02:53.531Z,110
2018-12-31T11:04:03.786Z,110
2018-12-31T11:05:14.259Z,100
2018-12-31T11:06:24.191Z,95
2018-12-31T11:07:34.132Z,95
2018-12-31T11:08:44.288Z,95
2018-12-31T11:09:54.176Z,85
2018-12-31T11:11:04.510Z,85
2018-12-31T11:12:15.385Z,80
2018-12-31T11:13:26.137Z,75
2018-12-31T11:14:36.967Z,70
2018-12-31T11:15:46.970Z,65
2018-12-31T11:16:56.726Z,70
2018-12-31T11:18:06.921Z,70
2018-12-31T11:19:16.352Z,75
2018-12-31T11:20:25.789Z,80
2018-12-31T11:21:34.979Z,90
2018-12-31T11:22:44.748Z,105
2018-12-31T11:23:54.178Z,105
2018-12-31T11:25:03.873Z,110
2018-12-31T11:26:13.573Z,105
2018-12-31T11:27:23.322Z,115
2018-12-31T11:28:32.765Z,105
2018-12-31T11:29:42.503Z,110
2018-12-31T11:30:53.911Z,125
2018-12-31T11:32:03.432Z,135
2018-12-31T11:33:13.127Z,135
2018-12-31T11:34:22.805Z,145
2018-12-31T11:35:32.735Z,150
2018-12-31T11:36:41.919Z,125
2018-12-31T11:37:51.605Z,115
2018-12-31T11:39:01.042Z,130
2018-12-31T11:40:10.795Z,130
2018-12-31T11:41:20.484Z,115
2018-12-31T11:42:30.179Z,100
2018-12-31T11:43:39.608Z,100
2018-12-31T11:44:49.291Z,95
2018-12-31T11:45:58.482Z,100
2018-12-31T11:47:08.161Z,115
2018-12-31T11:48:18.095Z,100
2018-12-31T11:49:27.518Z,105
2018-12-31T11:50:37.455Z,110
2018-12-31T11:51:47.134Z,120
2018-12-31T11:52:57.120Z,130
2018-12-31T11:54:06.378Z,125
2018-12-31T11:55:16.104Z,125
2018-12-31T11:56:25.789Z,140
2018-12-31T11:57:35.527Z,140
2018-12-31T11:58:45.210Z,140
2018-12-31T11:59:56.390Z,140
2018-12-31T12:01:06.022Z,145
2018-12-31T12:02:15.315Z,155
2018-12-31T12:03:24.774Z,165
2018-12-31T12:04:33.487Z,180
2018-12-31T12:05:43.285Z,175
2018-12-31T12:06:52.923Z,160
2018-12-31T12:08:02.406Z,185
2018-12-31T12:09:12.127Z,165
2018-12-31T12:10:21.625Z,140
2018-12-31T12:11:31.412Z,145
2018-12-31T12:12:41.409Z,160
2018-12-31T12:13:51.133Z,150
2018-12-31T12:15:00.751Z,150
2018-12-31T12:16:10.735Z,145
2018-12-31T12:17:20.765Z,135
2018-12-31T12:18:30.261Z,115
2018-12-31T12:19:40.250Z,120
2018-12-31T12:20:49.720Z,130
2018-12-31T12:21:59.431Z,125
2018-12-31T12:23:09.149Z,115
2018-12-31T12:24:18.684Z,110
2018-12-31T12:25:28.297Z,105
2018-12-31T12:26:37.728Z,100
2018-12-31T12:27:47.691Z,100
2018-12-31T12:28:57.407Z,120
2018-12-31T12:30:07.105Z,125
2018-12-31T12:31:17.521Z,135
2018-12-31T12:32:28.398Z,175
2018-12-31T12:33:38.979Z,180
2018-12-31T12:34:48.576Z,140
2018-12-31T12:35:58.916Z,135
2018-12-31T12:37:08.657Z,145
2018-12-31T12:38:18.451Z,145
2018-12-31T12:39:27.918Z,150
2018-12-31T12:40:37.384Z,160
2018-12-31T12:41:46.847Z,155
2018-12-31T12:42:56.557Z,160
2018-12-31T12:44:06.276Z,165
2018-12-31T12:45:15.764Z,155
2018-12-31T12:46:25.722Z,160
2018-12-31T12:47:35.681Z,155
2018-12-31T12:48:45.399Z,135
2018-12-31T12:49:55.133Z,125
2018-12-31T12:51:04.343Z,120
2018-12-31T12:52:14.062Z,120
2018-12-31T12:53:24.509Z,120
2018-12-31T12:54:34.473Z,120
2018-12-31T12:55:44.189Z,105
2018-12-31T12:56:53.939Z,95
2018-12-31T12:58:03.897Z,100
2018-12-31T12:59:13.575Z,115
2018-12-31T13:00:23.505Z,110
2018-12-31T13:01:33.334Z,110
2018-12-31T13:02:42.692Z,90
2018-12-31T13:03:52.077Z,105
2018-12-31T13:05:08.357Z,110
2018-12-31T13:06:18.683Z,120
2018-12-31T13:07:29.451Z,125
2018-12-31T13:08:39.932Z,145
2018-12-31T13:09:50.470Z,115
2018-12-31T13:10:59.835Z,115
2018-12-31T13:12:09.539Z,140
2018-12-31T13:13:19.261Z,135
2018-12-31T13:14:28.727Z,145
2018-12-31T13:15:38.210Z,155
2018-12-31T13:16:47.732Z,140
2018-12-31T13:17:57.701Z,150
2018-12-31T13:19:07.510Z,170
2018-12-31T13:20:17.251Z,160
2018-12-31T13:21:26.729Z,130
2018-12-31T13:22:35.945Z,120
2018-12-31T13:23:45.160Z,115
2018-12-31T13:24:54.424Z,110
2018-12-31T13:26:04.133Z,105
2018-12-31T13:27:13.617Z,100
2018-12-31T13:28:23.337Z,90
2018-12-31T13:29:32.817Z,100
2018-12-31T13:30:42.255Z,90
2018-12-31T13:31:52.219Z,95
2018-12-31T13:33:02.189Z,100
2018-12-31T13:34:11.659Z,90
2018-12-31T13:35:21.394Z,90
2018-12-31T13:36:32.433Z,90
2018-12-31T13:37:42.152Z,95
2018-12-31T13:38:51.930Z,95
2018-12-31T13:40:01.904Z,95
2018-12-31T13:41:11.872Z,95
2018-12-31T13:42:23.036Z,85
2018-12-31T13:43:33.626Z,85
2018-12-31T13:44:43.978Z,80
2018-12-31T13:45:54.541Z,85
2018-12-31T13:47:04.595Z,90
2018-12-31T13:48:13.858Z,80
2018-12-31T13:49:23.855Z,80
2018-12-31T13:50:34.297Z,80
2018-12-31T13:51:43.765Z,75
2018-12-31T13:52:53.479Z,70
2018-12-31T13:54:03.024Z,65
2018-12-31T13:55:13.094Z,60
2018-12-31T13:56:22.871Z,65
2018-12-31T13:57:32.447Z,65
2018-12-31T13:58:41.675Z,75
2018-12-31T13:59:51.649Z,60
2018-12-31T14:01:01.359Z,60
2018-12-31T14:02:11.318Z,60
2018-12-31T14:03:26.886Z,60
2018-12-31T14:04:36.889Z,60
2018-12-31T14:05:46.866Z,55
2018-12-31T14:06:56.333Z,65
2018-12-31T14:08:06.304Z,60
2018-12-31T14:09:17.015Z,55
2018-12-31T14:10:26.480Z,50
2018-12-31T14:11:36.193Z,50
2018-12-31T14:12:45.912Z,55
2018-12-31T14:13:55.717Z,55
2018-12-31T14:15:05.863Z,50
2018-12-31T14:16:16.313Z,55
2018-12-31T14:17:26.050Z,55
2018-12-31T14:18:36.462Z,50
2018-12-31T14:19:46.675Z,45
2018-12-31T14:20:56.394Z,55
2018-12-31T14:22:05.922Z,50
2018-12-31T14:23:15.623Z,45
2018-12-31T14:24:25.344Z,40
2018-12-31T14:25:35.308Z,40
2018-12-31T14:26:45.014Z,40
2018-12-31T14:27:54.484Z,40
2018-12-31T14:29:08.484Z,40
2018-12-31T14:30:22.571Z,40
2018-12-31T14:31:41.058Z,30
2018-12-31T14:32:50.807Z,30
2018-12-31T14:34:04.404Z,35
2018-12-31T14:35:17.484Z,30
2018-12-31T14:36:29.236Z,25
2018-12-31T14:37:42.786Z,20
2018-12-31T14:39:04.412Z,25
2018-12-31T14:40:14.402Z,20
2018-12-31T14:41:24.165Z,25
2018-12-31T14:42:33.889Z,20
2018-12-31T14:43:43.606Z,20
2018-12-31T14:44:53.315Z,20
2018-12-31T14:46:02.789Z,20
2018-12-31T14:47:20.586Z,20
2018-12-31T14:48:29.882Z,15
2018-12-31T14:49:39.091Z,15
2018-12-31T14:50:48.802Z,15
2018-12-31T14:51:58.275Z,15
2018-12-31T14:53:07.988Z,15
2018-12-31T14:54:17.712Z,15
2018-12-31T14:55:27.663Z,10
2018-12-31T14:56:37.376Z,10
2018-12-31T14:57:47.340Z,10
2018-12-31T14:58:56.798Z,10
2018-12-31T15:00:06.250Z,10
2018-12-31T15:01:15.456Z,10
2018-12-31T15:02:24.935Z,10
2018-12-31T15:03:35.051Z,5
2018-12-31T15:04:45.059Z,5
2018-12-31T15:05:55.185Z,5
2018-12-31T15:07:05.836Z,5
2018-12-31T15:08:15.792Z,5
2018-12-31T15:09:25.756Z,5
2018-12-31T15:10:35.228Z,5
2018-12-31T15:11:45.276Z,5
2018-12-31T15:12:54.767Z,5
2018-12-31T15:14:04.486Z,0
2018-12-31T15:15:14.210Z,0
2018-12-31T15:16:24.209Z,0
2018-12-31T15:17:33.923Z,0
2018-12-31T15:18:43.637Z,0
2018-12-31T15:19:53.103Z,0
2018-12-31T15:21:02.572Z,0
2018-12-31T15:22:12.560Z,0
2018-12-31T15:23:22.268Z,0
2018-12-31T15:24:31.970Z,0
2018-12-31T15:25:41.434Z,0
2018-12-31T15:26:51.154Z,0
2018-12-31T15:28:01.105Z,0
2018-12-31T15:29:10.828Z,0
2018-12-31T15:30:20.790Z,0
2018-12-31T15:31:30.823Z,0
2018-12-31T15:32:40.529Z,0
2018-12-31T15:33:50.498Z,0
2018-12-31T15:34:59.953Z,0
2018-12-31T15:36:09.415Z,0
2018-12-31T15:37:18.881Z,0
2018-12-31T15:38:28.582Z,0
2018-12-31T15:39:38.533Z,0
2018-12-31T15:40:48.234Z,0
2018-12-31T15:41:57.697Z,0
2018-12-31T15:43:08.372Z,0
2018-12-31T15:44:18.497Z,0
2018-12-31T15:45:28.566Z,0
2018-12-31T15:46:38.849Z,0
2018-12-31T15:47:51.165Z,0
2018-12-31T15:49:00.875Z,0
2018-12-31T15:50:10.598Z,0
2018-12-31T15:51:20.578Z,0
2018-12-31T15:52:30.103Z,0
2018-12-31T15:53:39.800Z,0
2018-12-31T15:54:49.259Z,0
2018-12-31T15:55:59.003Z,0
2018-12-31T15:57:08.711Z,0
2018-12-31T15:58:17.912Z,0
2018-12-31T15:59:27.980Z,0
2018-12-31T16:00:37.438Z,0
2018-12-31T16:01:47.470Z,0
2018-12-31T16:02:56.926Z,0
2018-12-31T16:04:06.130Z,0
2018-12-31T16:05:15.856Z,0
2018-12-31T16:06:25.309Z,0
2018-12-31T16:07:35.379Z,0
2018-12-31T16:08:44.846Z,0
2018-12-31T16:09:54.559Z,0
2018-12-31T16:11:04.021Z,0
2018-12-31T16:12:13.488Z,0
2018-12-31T16:13:23.197Z,0
2018-12-31T16:14:32.665Z,0
2018-12-31T16:15:42.381Z,0
2018-12-31T16:16:52.355Z,0
2018-12-31T16:18:01.558Z,0
2018-12-31T16:19:11.017Z,0
2018-12-31T16:20:20.726Z,0
2018-12-31T16:21:30.425Z,0
2018-12-31T16:22:40.465Z,0
2018-12-31T16:23:51.338Z,0
2018-12-31T16:25:01.753Z,0
2018-12-31T16:26:12.399Z,0
2018-12-31T16:27:22.078Z,0
2018-12-31T16:28:32.074Z,0
2018-12-31T16:29:41.562Z,0
2018-12-31T16:30:51.269Z,0
2018-12-31T16:32:00.972Z,0
2018-12-31T16:33:10.924Z,0
2018-12-31T16:34:20.891Z,0
2018-12-31T16:35:30.364Z,0
2018-12-31T16:36:39.583Z,0
2018-12-31T16:37:49.058Z,0
2018-12-31T16:38:58.530Z,0
2018-12-31T16:40:07.793Z,0
2018-12-31T16:41:17.504Z,0
2018-12-31T16:42:27.231Z,0
2018-12-31T16:43:36.680Z,0
2018-12-31T16:44:47.033Z,0
2018-12-31T16:45:56.244Z,0
2018-12-31T16:47:05.715Z,0
2018-12-31T16:48:15.684Z,0
2018-12-31T16:49:25.655Z,0
2018-12-31T16:50:35.392Z,0
2018-12-31T16:51:46.599Z,0
2018-12-31T16:52:56.058Z,0
2018-12-31T16:54:05.767Z,0
2018-12-31T16:55:15.782Z,0
2018-12-31T16:56:25.501Z,0
2018-12-31T16:57:35.469Z,0
2018-12-31T16:58:45.182Z,0
2018-12-31T16:59:54.889Z,0
2018-12-31T17:01:04.605Z,0
2018-12-31T17:02:15.034Z,0
2018-12-31T17:03:25.771Z,0
2018-12-31T17:04:35.772Z,0
2018-12-31T17:05:45.682Z,0
2018-12-31T17:06:55.513Z,0
2018-12-31T17:08:05.678Z,0
2018-12-31T17:09:15.582Z,0
2018-12-31T17:10:25.298Z,0
2018-12-31T17:11:35.015Z,0
2018-12-31T17:12:44.979Z,0
2018-12-31T17:13:54.936Z,0
2018-12-31T17:15:04.399Z,0
2018-12-31T17:16:13.869Z,0
2018-12-31T17:17:23.090Z,0
2018-12-31T17:18:32.794Z,0
2018-12-31T17:19:42.870Z,0
2018-12-31T17:20:52.084Z,0
2018-12-31T17:22:01.793Z,0
2018-12-31T17:23:11.306Z,0
2018-12-31T17:24:21.272Z,0
2018-12-31T17:25:30.738Z,0
2018-12-31T17:26:39.949Z,0
2018-12-31T17:27:49.424Z,0
2018-12-31T17:28:58.895Z,0
2018-12-31T17:30:08.629Z,0
2018-12-31T17:31:18.584Z,0
2018-12-31T17:32:28.154Z,0
2018-12-31T17:33:38.788Z,0
2018-12-31T17:34:48.305Z,0
2018-12-31T17:35:57.517Z,0
2018-12-31T17:37:06.726Z,0
2018-12-31T17:38:16.451Z,0
2018-12-31T17:39:26.239Z,0
2018-12-31T17:40:36.359Z,0
2018-12-31T17:41:45.888Z,0
2018-12-31T17:42:55.845Z,0
2018-12-31T17:44:05.487Z,0
2018-12-31T17:45:22.727Z,0
2018-12-31T17:46:32.764Z,0
2018-12-31T17:47:42.397Z,0
2018-12-31T17:48:52.179Z,0
2018-12-31T17:50:01.763Z,0
2018-12-31T17:51:11.236Z,0
2018-12-31T17:52:21.198Z,0
2018-12-31T17:53:31.169Z,0
2018-12-31T17:54:40.147Z,0
2018-12-31T17:55:49.863Z,0
2018-12-31T17:56:59.330Z,0
2018-12-31T17:58:08.798Z,0
2018-12-31T17:59:18.249Z,0
2018-12-31T18:00:27.427Z,0
2018-12-31T18:01:37.161Z,0
2018-12-31T18:02:46.642Z,0
2018-12-31T18:03:56.106Z,0
2018-12-31T18:05:05.622Z,0
2018-12-31T18:06:16.321Z,0
2018-12-31T18:07:25.788Z,0
2018-12-31T18:08:35.601Z,0
2018-12-31T18:09:45.066Z,0
2018-12-31T18:10:54.782Z,0
2018-12-31T18:12:04.001Z,0
2018-12-31T18:13:15.756Z,0
2018-12-31T18:14:25.501Z,0
2018-12-31T18:15:35.472Z,0
2018-12-31T18:16:45.194Z,0
2018-12-31T18:17:54.904Z,0
2018-12-31T18:19:04.616Z,0
2018-12-31T18:20:14.392Z,0
2018-12-31T18:21:24.909Z,0
2018-12-31T18:22:35.748Z,0
2018-12-31T18:23:46.192Z,0
2018-12-31T18:24:56.384Z,0
2018-12-31T18:26:06.209Z,0
2018-12-31T18:27:16.420Z,0
2018-12-31T18:28:25.893Z,0
2018-12-31T18:29:35.757Z,0
2018-12-31T18:30:44.971Z,0
2018-12-31T18:31:54.993Z,0
2018-12-31T18:33:04.920Z,0
2018-12-31T18:34:14.617Z,0
2018-12-31T18:35:23.921Z,0
2018-12-31T18:36:33.929Z,0
2018-12-31T18:37:50.972Z,0
2018-12-31T18:39:00.185Z,0
2018-12-31T18:40:09.403Z,0
2018-12-31T18:41:19.369Z,0
2018-12-31T18:42:28.817Z,0
2018-12-31T18:43:38.277Z,0
2018-12-31T18:44:47.749Z,0
2018-12-31T18:45:57.470Z,0
2018-12-31T18:47:07.175Z,0
2018-12-31T18:48:16.648Z,0
2018-12-31T18:49:26.607Z,0
2018-12-31T18:50:35.574Z,0
2018-12-31T18:51:45.545Z,0
2018-12-31T18:52:55.012Z,0
2018-12-31T18:54:04.271Z,0
2018-12-31T18:55:13.972Z,0
2018-12-31T18:56:23.702Z,0
2018-12-31T18:57:33.165Z,0
2018-12-31T18:58:42.620Z,0
2018-12-31T18:59:53.082Z,0
2018-12-31T19:01:03.831Z,0
2018-12-31T19:02:14.325Z,0
2018-12-31T19:03:24.571Z,0
2018-12-31T19:04:34.564Z,0
2018-12-31T19:05:44.289Z,0
2018-12-31T19:06:54.099Z,0
2018-12-31T19:08:03.566Z,0
2018-12-31T19:09:13.015Z,0
2018-12-31T19:10:22.758Z,0
2018-12-31T19:11:32.221Z,0
2018-12-31T19:12:41.924Z,0
2018-12-31T19:13:51.385Z,0
2018-12-31T19:15:01.089Z,0
2018-12-31T19:16:11.061Z,0
2018-12-31T19:17:20.770Z,0
2018-12-31T19:18:30.538Z,0
2018-12-31T19:19:39.994Z,0
2018-12-31T19:20:49.715Z,0
2018-12-31T19:21:59.191Z,0
2018-12-31T19:23:09.159Z,0
2018-12-31T19:24:18.359Z,0
2018-12-31T19:25:28.078Z,0
2018-12-31T19:26:37.549Z,0
2018-12-31T19:27:47.263Z,0
2018-12-31T19:28:56.725Z,0
2018-12-31T19:30:06.186Z,0
2018-12-31T19:31:15.706Z,0
2018-12-31T19:32:25.433Z,0
2018-12-31T19:33:34.910Z,0
2018-12-31T19:34:44.706Z,0
2018-12-31T19:35:54.662Z,0
2018-12-31T19:37:04.388Z,0
2018-12-31T19:38:14.095Z,0
2018-12-31T19:39:24.110Z,0
2018-12-31T19:40:33.587Z,0
2018-12-31T19:41:43.522Z,0
2018-12-31T19:42:53.770Z,0
2018-12-31T19:44:04.611Z,0
2018-12-31T19:45:14.812Z,0
2018-12-31T19:46:24.863Z,0
2018-12-31T19:47:34.628Z,0
2018-12-31T19:48:44.329Z,0
2018-12-31T19:49:54.293Z,0
2018-12-31T19:51:03.998Z,0
2018-12-31T19:52:13.727Z,0
2018-12-31T19:53:23.507Z,0
2018-12-31T19:54:32.989Z,0
2018-12-31T19:55:42.451Z,0
2018-12-31T19:56:52.416Z,0
2018-12-31T19:58:02.162Z,0
2018-12-31T19:59:11.633Z,0
2018-12-31T20:00:21.378Z,0
2018-12-31T20:01:31.373Z,0
2018-12-31T20:02:41.326Z,0
2018-12-31T20:03:51.082Z,0
2018-12-31T20:05:00.839Z,0
2018-12-31T20:06:10.801Z,0
2018-12-31T20:07:20.759Z,0
2018-12-31T20:08:30.232Z,0
2018-12-31T20:09:39.944Z,0
2018-12-31T20:10:49.499Z,0
2018-12-31T20:11:58.716Z,0
2018-12-31T20:13:08.199Z,0
2018-12-31T20:14:17.919Z,0
2018-12-31T20:15:27.127Z,0
2018-12-31T20:16:36.654Z,0
2018-12-31T20:17:46.135Z,0
2018-12-31T20:18:55.696Z,0
2018-12-31T20:20:05.448Z,0
2018-12-31T20:21:14.691Z,0
2018-12-31T20:22:24.373Z,0
2018-12-31T20:23:34.402Z,0
2018-12-31T20:24:44.561Z,0
2018-12-31T20:25:53.982Z,0
2018-12-31T20:27:04.409Z,0
2018-12-31T20:28:16.137Z,0
2018-12-31T20:29:26.241Z,0
2018-12-31T20:30:36.446Z,0
2018-12-31T20:31:46.730Z,0
2018-12-31T20:32:57.173Z,0
2018-12-31T20:34:06.914Z,0
2018-12-31T20:35:16.460Z,0
2018-12-31T20:36:26.462Z,0
2018-12-31T20:37:36.462Z,0
2018-12-31T20:38:47.028Z,0
2018-12-31T20:39:56.857Z,0
2018-12-31T20:41:06.726Z,0
2018-12-31T20:42:16.230Z,0
2018-12-31T20:43:25.747Z,0
2018-12-31T20:44:35.478Z,0
2018-12-31T20:45:45.251Z,0
2018-12-31T20:46:54.723Z,0
2018-12-31T20:48:11.254Z,0
2018-12-31T20:49:20.997Z,0
2018-12-31T20:50:30.969Z,0
2018-12-31T20:51:40.422Z,0
2018-12-31T20:52:49.879Z,0
2018-12-31T20:53:59.838Z,0
2018-12-31T20:55:09.546Z,0
2018-12-31T20:56:19.268Z,0
2018-12-31T20:57:28.506Z,0
2018-12-31T20:58:38.218Z,0
2018-12-31T20:59:48.181Z,0
2018-12-31T21:00:57.447Z,0
2018-12-31T21:02:07.172Z,0
2018-12-31T21:03:17.146Z,0
2018-12-31T21:04:28.426Z,0
2018-12-31T21:05:38.142Z,0
2018-12-31T21:06:47.848Z,0
2018-12-31T21:07:57.399Z,0
2018-12-31T21:09:07.343Z,0
2018-12-31T21:10:18.010Z,0
2018-12-31T21:11:28.792Z,0
2018-12-31T21:12:40.220Z,0
2018-12-31T21:13:50.752Z,0
2018-12-31T21:15:00.578Z,0
2018-12-31T21:16:10.381Z,0
2018-12-31T21:17:19.352Z,0
2018-12-31T21:18:28.826Z,0
2018-12-31T21:19:38.557Z,0
2018-12-31T21:20:48.267Z,0
2018-12-31T21:21:57.774Z,0
2018-12-31T21:23:07.236Z,0
2018-12-31T21:24:16.756Z,0
2018-12-31T21:25:26.727Z,0
2018-12-31T21:26:36.430Z,0
2018-12-31T21:27:46.162Z,0
2018-12-31T21:28:55.633Z,0
2018-12-31T21:30:05.610Z,0
2018-12-31T21:31:15.203Z,0
2018-12-31T21:32:24.913Z,0
2018-12-31T21:33:34.616Z,0
2018-12-31T21:34:46.168Z,0
2018-12-31T21:35:55.633Z,0
2018-12-31T21:37:05.099Z,0
2018-12-31T21:38:15.055Z,0
2018-12-31T21:39:24.515Z,0
2018-12-31T21:40:35.235Z,0
2018-12-31T21:41:45.028Z,0
2018-12-31T21:42:54.730Z,0
2018-12-31T21:44:04.616Z,0
2018-12-31T21:45:14.332Z,0
2018-12-31T21:46:24.307Z,0
2018-12-31T21:47:34.272Z,0
2018-12-31T21:48:43.996Z,0
2018-12-31T21:49:52.950Z,0
2018-12-31T21:51:02.652Z,0
2018-12-31T21:52:12.608Z,0
2018-12-31T21:53:22.813Z,0
2018-12-31T21:54:33.469Z,0
2018-12-31T21:55:43.907Z,0
2018-12-31T21:56:54.254Z,0
2018-12-31T21:58:04.175Z,0
2018-12-31T21:59:14.031Z,0
2018-12-31T22:00:23.742Z,0
2018-12-31T22:01:33.538Z,0
2018-12-31T22:02:43.023Z,0
2018-12-31T22:03:52.798Z,0
2018-12-31T22:05:02.545Z,0
2018-12-31T22:06:12.582Z,0
2018-12-31T22:07:22.304Z,0
2018-12-31T22:08:32.098Z,0
2018-12-31T22:09:41.961Z,0
2018-12-31T22:10:51.537Z,0
2018-12-31T22:12:01.001Z,0
2018-12-31T22:13:10.461Z,0
2018-12-31T22:14:20.411Z,0
2018-12-31T22:15:30.133Z,0
2018-12-31T22:16:40.105Z,0
2018-12-31T22:17:49.818Z,0
2018-12-31T22:18:59.519Z,0
2018-12-31T22:20:08.995Z,0
2018-12-31T22:21:18.459Z,0
2018-12-31T22:22:27.683Z,0
2018-12-31T22:23:37.387Z,0
2018-12-31T22:24:47.097Z,0
2018-12-31T22:25:56.556Z,0
2018-12-31T22:27:06.022Z,0
2018-12-31T22:28:15.981Z,0
2018-12-31T22:29:25.706Z,0
2018-12-31T22:30:35.660Z,0
2018-12-31T22:31:45.371Z,0
2018-12-31T22:32:55.330Z,0
2018-12-31T22:34:05.294Z,0
2018-12-31T22:35:15.002Z,0
2018-12-31T22:36:24.858Z,0
2018-12-31T22:37:35.088Z,0
2018-12-31T22:38:45.282Z,0
2018-12-31T22:39:55.785Z,0
2018-12-31T22:41:06.047Z,0
2018-12-31T22:42:15.987Z,0
2018-12-31T22:43:25.696Z,0
2018-12-31T22:44:35.207Z,0
2018-12-31T22:45:44.918Z,0
2018-12-31T22:46:54.392Z,0
2018-12-31T22:48:04.106Z,0
2018-12-31T22:49:13.800Z,0
2018-12-31T22:50:23.007Z,0
2018-12-31T22:51:32.887Z,0
2018-12-31T22:52:42.355Z,0
2018-12-31T22:53:51.549Z,0
2018-12-31T22:55:01.262Z,0
2018-12-31T22:56:11.221Z,0
2018-12-31T22:57:21.185Z,0
2018-12-31T22:58:30.902Z,0
2018-12-31T22:59:40.106Z,0
2018-12-31T23:00:49.562Z,0
2018-12-31T23:01:59.272Z,0
2018-12-31T23:03:08.829Z,0
2018-12-31T23:04:18.298Z,0
2018-12-31T23:05:28.019Z,0
2018-12-31T23:06:37.973Z,0
2018-12-31T23:07:47.936Z,0
2018-12-31T23:08:58.010Z,0
2018-12-31T23:10:07.729Z,0
2018-12-31T23:11:17.692Z,0
2018-12-31T23:12:27.427Z,0
2018-12-31T23:13:37.405Z,0
2018-12-31T23:14:47.106Z,0
2018-12-31T23:15:56.894Z,0
2018-12-31T23:17:07.245Z,0
2018-12-31T23:18:17.858Z,0
2018-12-31T23:19:28.403Z,0
2018-12-31T23:20:38.665Z,0
2018-12-31T23:21:48.450Z,0
2018-12-31T23:22:58.157Z,0
2018-12-31T23:24:08.121Z,0
2018-12-31T23:25:17.599Z,0
2018-12-31T23:26:27.570Z,0
2018-12-31T23:27:37.033Z,0
2018-12-31T23:28:54.613Z,0
2018-12-31T23:30:04.340Z,0
2018-12-31T23:31:13.801Z,0
2018-12-31T23:32:23.621Z,0
2018-12-31T23:33:33.573Z,0
2018-12-31T23:34:43.529Z,0
2018-12-31T23:35:53.503Z,0
2018-12-31T23:37:03.479Z,0
2018-12-31T23:38:13.447Z,0
2018-12-31T23:39:22.420Z,0
2018-12-31T23:40:32.133Z,0
2018-12-31T23:41:41.858Z,0
2018-12-31T23:42:51.815Z,0
2018-12-31T23:44:01.782Z,0
2018-12-31T23:45:11.750Z,0
2018-12-31T23:46:21.611Z,0
2018-12-31T23:47:31.128Z,0
2018-12-31T23:48:42.343Z,0
2018-12-31T23:49:52.039Z,0
2018-12-31T23:51:01.750Z,0
2018-12-31T23:52:12.392Z,0
2018-12-31T23:53:22.955Z,0
2018-12-31T23:54:33.251Z,0
2018-12-31T23:55:43.514Z,0
2018-12-31T23:56:55.207Z,0
2018-12-31T23:58:05.171Z,0
2018-12-31T23:59:14.381Z,0
